Time;durP1;ratioP1;P1;durP2;ratioP2;P2;SDS_P1;SDS_P2;PMS_P1;PMS_P2;Temp;Humidity;BMP_temperature;BMP_pressure;BME280_temperature;BME280_humidity;BME280_pressure;Samples;Min_cycle;Max_cycle;Signal;HPM_P1;HPM_P2
2021/12/01 00:00:26;;;;;;;17.23;9.50;;;3.50;76.20;;;;;;4993160;28;20447;-68
2021/12/01 00:02:53;;;;;;;18.80;9.10;;;3.50;76.90;;;;;;4993164;28;20026;-68
2021/12/01 00:05:20;;;;;;;24.47;12.20;;;3.50;76.90;;;;;;4993385;28;20498;-68
2021/12/01 00:07:46;;;;;;;22.70;11.93;;;3.50;76.50;;;;;;4993494;28;20045;-68
2021/12/01 00:10:12;;;;;;;22.80;11.03;;;3.50;76.80;;;;;;4993266;28;20479;-68
2021/12/01 00:12:38;;;;;;;19.00;8.80;;;3.50;77.20;;;;;;4993472;28;20034;-68
2021/12/01 00:15:05;;;;;;;17.27;8.73;;;3.50;75.90;;;;;;4993420;28;20029;-68
2021/12/01 00:17:33;;;;;;;18.20;8.87;;;3.40;76.30;;;;;;4993382;28;20061;-68
2021/12/01 00:19:59;;;;;;;13.67;7.43;;;3.40;77.00;;;;;;4993268;28;20468;-68
2021/12/01 00:22:26;;;;;;;14.30;7.10;;;3.40;77.50;;;;;;4993375;28;20026;-68
2021/12/01 00:24:52;;;;;;;10.60;6.17;;;3.40;77.40;;;;;;4993455;28;20105;-68
2021/12/01 00:27:18;;;;;;;12.23;6.80;;;3.40;77.40;;;;;;4993371;28;20046;-68
2021/12/01 00:29:44;;;;;;;17.93;7.07;;;3.40;77.60;;;;;;4993524;28;20049;-68
2021/12/01 00:32:10;;;;;;;12.67;6.17;;;3.40;75.90;;;;;;4993335;28;20534;-68
2021/12/01 00:34:36;;;;;;;13.50;6.43;;;3.30;76.80;;;;;;4993359;28;20031;-68
2021/12/01 00:37:02;;;;;;;14.47;6.00;;;3.30;77.80;;;;;;4993359;28;20121;-68
2021/12/01 00:39:28;;;;;;;12.67;5.67;;;3.30;77.80;;;;;;4993283;28;20023;-69
2021/12/01 00:41:55;;;;;;;11.80;5.50;;;3.30;78.00;;;;;;4993165;28;20487;-68
2021/12/01 00:44:22;;;;;;;10.73;5.13;;;3.30;78.40;;;;;;4993282;28;20026;-68
2021/12/01 00:47:07;;;;;;;13.13;5.57;;;3.30;78.30;;;;;;4993237;28;20018;-68
2021/12/01 00:49:35;;;;;;;9.70;5.53;;;3.30;78.10;;;;;;4993170;28;20142;-69
2021/12/01 00:52:01;;;;;;;9.90;5.50;;;3.40;78.20;;;;;;4992980;28;20188;-68
2021/12/01 00:54:27;;;;;;;11.93;5.47;;;3.30;78.40;;;;;;4993407;28;20109;-68
2021/12/01 00:56:53;;;;;;;9.90;4.83;;;3.30;78.10;;;;;;4995465;28;20054;-68
2021/12/01 00:59:19;;;;;;;9.67;4.80;;;3.30;78.00;;;;;;4996563;28;20054;-68
2021/12/01 01:01:46;;;;;;;12.37;4.33;;;3.40;77.60;;;;;;4996097;28;20045;-68
2021/12/01 01:04:12;;;;;;;7.40;3.90;;;3.40;77.60;;;;;;4996637;28;20116;-68
2021/12/01 01:06:38;;;;;;;7.97;4.00;;;3.30;78.10;;;;;;4996372;28;20022;-69
2021/12/01 01:09:06;;;;;;;9.30;4.57;;;3.30;78.50;;;;;;4996581;28;20037;-68
2021/12/01 01:17:06;;;;;;;9.03;3.70;;;3.40;78.60;;;;;;4996363;28;20037;-68
2021/12/01 01:19:33;;;;;;;7.83;3.60;;;3.50;78.20;;;;;;4996118;28;20022;-68
2021/12/01 01:22:00;;;;;;;9.00;3.63;;;3.50;77.80;;;;;;4996245;28;20054;-69
2021/12/01 01:24:26;;;;;;;8.10;3.37;;;3.50;77.70;;;;;;4996359;28;20026;-68
2021/12/01 01:26:51;;;;;;;8.07;3.17;;;3.60;77.70;;;;;;4996489;28;20501;-69
2021/12/01 01:29:21;;;;;;;10.03;3.13;;;3.60;77.60;;;;;;4996263;28;20023;-68
2021/12/01 01:31:49;;;;;;;9.20;2.87;;;3.60;77.30;;;;;;4995992;28;20552;-68
2021/12/01 01:34:15;;;;;;;7.40;2.77;;;3.70;77.40;;;;;;4996022;28;20081;-68
2021/12/01 01:36:41;;;;;;;6.57;2.10;;;3.70;77.00;;;;;;4996092;28;20054;-68
2021/12/01 01:39:07;;;;;;;7.20;2.40;;;3.80;77.00;;;;;;4995916;28;20022;-68
2021/12/01 01:41:33;;;;;;;7.37;2.60;;;3.80;76.70;;;;;;4995812;28;20026;-68
2021/12/01 01:43:59;;;;;;;5.90;2.47;;;3.90;76.60;;;;;;4995895;28;20037;-68
2021/12/01 01:46:34;;;;;;;4.77;1.87;;;3.90;76.40;;;;;;4995899;28;20022;-68
2021/12/01 01:51:56;;;;;;;6.23;2.10;;;4.00;75.90;;;;;;4959402;28;20043;-68
2021/12/01 01:54:21;;;;;;;3.53;2.13;;;4.00;75.90;;;;;;4995605;28;20027;-68
2021/12/01 01:56:47;;;;;;;4.97;2.13;;;4.00;76.10;;;;;;4995423;28;20050;-68
2021/12/01 01:59:13;;;;;;;7.73;1.87;;;4.00;76.90;;;;;;4974981;28;20034;-68
2021/12/01 02:01:44;;;;;;;10.07;2.53;;;4.00;76.50;;;;;;4974754;28;20070;-69
2021/12/01 02:04:12;;;;;;;4.13;2.17;;;4.00;76.80;;;;;;4992974;28;20030;-68
2021/12/01 02:06:38;;;;;;;6.97;2.10;;;4.00;77.00;;;;;;4994858;28;20030;-68
2021/12/01 02:09:06;;;;;;;5.27;1.87;;;4.00;77.10;;;;;;4994494;28;20161;-69
2021/12/01 02:11:32;;;;;;;5.00;2.00;;;4.00;77.40;;;;;;4994953;28;20106;-69
2021/12/01 02:13:57;;;;;;;6.90;2.53;;;4.00;77.50;;;;;;4994592;28;20038;-68
2021/12/01 02:16:23;;;;;;;5.53;2.50;;;4.00;77.80;;;;;;4994995;28;20030;-67
2021/12/01 02:18:50;;;;;;;5.07;2.50;;;4.00;78.00;;;;;;4995013;28;20030;-69
2021/12/01 02:21:18;;;;;;;8.73;2.67;;;4.00;78.20;;;;;;4994772;28;20037;-68
2021/12/01 02:23:49;;;;;;;7.77;3.03;;;4.00;78.30;;;;;;4977556;28;20030;-69
2021/12/01 02:26:18;;;;;;;8.93;3.60;;;4.00;78.50;;;;;;4994932;28;20106;-68
2021/12/01 02:28:46;;;;;;;5.83;2.90;;;4.00;78.50;;;;;;4994448;28;20098;-68
2021/12/01 02:31:12;;;;;;;5.97;3.07;;;4.00;78.30;;;;;;4994791;28;20053;-68
2021/12/01 02:33:39;;;;;;;7.23;3.50;;;4.00;78.50;;;;;;4994950;28;20034;-68
2021/12/01 02:36:08;;;;;;;9.20;3.23;;;3.90;78.00;;;;;;4994618;28;20435;-68
2021/12/01 02:38:33;;;;;;;6.57;3.37;;;3.90;78.30;;;;;;4976862;28;20041;-68
2021/12/01 02:40:59;;;;;;;6.53;3.10;;;3.90;78.30;;;;;;4994453;28;20038;-68
2021/12/01 02:43:25;;;;;;;6.00;3.57;;;3.90;78.70;;;;;;4976963;28;20030;-68
2021/12/01 02:45:52;;;;;;;8.87;3.60;;;3.90;78.50;;;;;;4994707;28;20041;-68
2021/12/01 02:48:18;;;;;;;10.50;3.60;;;3.80;78.30;;;;;;4994273;28;20026;-68
2021/12/01 02:50:44;;;;;;;7.50;3.53;;;3.80;78.40;;;;;;4993995;28;20088;-68
2021/12/01 02:53:10;;;;;;;7.73;3.60;;;3.80;78.80;;;;;;4994587;28;20031;-68
2021/12/01 02:55:54;;;;;;;7.60;3.47;;;3.80;79.40;;;;;;4994449;28;20076;-68
2021/12/01 02:58:22;;;;;;;6.87;3.73;;;3.70;79.50;;;;;;4994053;28;20094;-68
2021/12/01 03:00:49;;;;;;;8.23;3.37;;;3.70;80.00;;;;;;4994078;28;20530;-68
2021/12/01 03:03:16;;;;;;;10.73;3.50;;;3.70;80.10;;;;;;4994118;28;20098;-68
2021/12/01 03:05:48;;;;;;;9.37;3.40;;;3.70;80.40;;;;;;4994348;28;20030;-68
2021/12/01 03:08:18;;;;;;;6.38;3.33;;;3.70;80.30;;;;;;4994183;28;20024;-68
2021/12/01 03:10:46;;;;;;;4.43;3.23;;;3.70;80.60;;;;;;4994175;28;20081;-68
2021/12/01 03:13:14;;;;;;;6.93;3.57;;;3.70;80.60;;;;;;4993788;28;20034;-69
2021/12/01 03:15:39;;;;;;;6.80;3.10;;;3.70;80.70;;;;;;4994153;28;20018;-68
2021/12/01 03:18:05;;;;;;;7.77;3.53;;;3.70;81.00;;;;;;4994274;28;20514;-68
2021/12/01 03:20:31;;;;;;;7.03;3.10;;;3.70;81.00;;;;;;4993734;28;20070;-69
2021/12/01 03:22:57;;;;;;;6.63;3.20;;;3.70;81.00;;;;;;4993998;28;20027;-68
2021/12/01 03:25:24;;;;;;;9.53;3.07;;;3.70;81.10;;;;;;4993580;28;20057;-69
2021/12/01 03:27:50;;;;;;;5.53;2.97;;;3.70;81.30;;;;;;4993990;28;20030;-68
2021/12/01 03:30:16;;;;;;;8.90;3.20;;;3.70;81.50;;;;;;4993977;28;20033;-69
2021/12/01 03:32:42;;;;;;;5.47;3.00;;;3.80;81.30;;;;;;4993473;28;20046;-68
2021/12/01 03:35:13;;;;;;;9.33;3.33;;;3.80;81.20;;;;;;4993972;28;20106;-68
2021/12/01 03:37:40;;;;;;;6.30;3.60;;;3.80;81.30;;;;;;4993808;28;20034;-68
2021/12/01 03:40:07;;;;;;;9.53;3.50;;;3.80;81.10;;;;;;4993737;28;20386;-68
2021/12/01 03:42:32;;;;;;;9.60;3.70;;;3.90;81.20;;;;;;4993666;28;20018;-68
2021/12/01 03:44:58;;;;;;;7.80;3.20;;;3.80;81.10;;;;;;4993648;28;20487;-68
2021/12/01 03:47:25;;;;;;;6.07;3.30;;;3.90;81.40;;;;;;4993673;28;20034;-68
2021/12/01 03:49:51;;;;;;;8.07;3.47;;;3.90;81.20;;;;;;4976022;28;20034;-68
2021/12/01 03:52:18;;;;;;;9.77;3.50;;;3.90;81.10;;;;;;4993383;28;20105;-68
2021/12/01 03:54:45;;;;;;;8.93;3.27;;;3.90;81.30;;;;;;4993426;28;20073;-68
2021/12/01 03:57:11;;;;;;;7.37;3.40;;;3.90;81.40;;;;;;4993521;28;20105;-68
2021/12/01 03:59:37;;;;;;;7.30;3.80;;;3.90;82.00;;;;;;4993238;28;20026;-67
2021/12/01 04:02:03;;;;;;;7.17;3.80;;;3.90;81.80;;;;;;4993531;28;20470;-68
2021/12/01 04:04:29;;;;;;;7.43;3.40;;;3.90;81.70;;;;;;4993227;28;20058;-68
2021/12/01 04:06:55;;;;;;;9.83;3.53;;;3.90;81.70;;;;;;4993269;28;20034;-68
2021/12/01 04:09:21;;;;;;;6.87;3.70;;;3.90;81.50;;;;;;4993465;28;20113;-68
2021/12/01 04:11:47;;;;;;;6.93;3.63;;;4.00;81.80;;;;;;4993524;28;20034;-68
2021/12/01 04:14:13;;;;;;;10.70;4.00;;;4.00;81.90;;;;;;4993473;28;20023;-68
2021/12/01 04:16:39;;;;;;;7.70;3.53;;;4.00;82.10;;;;;;4993277;28;20037;-68
2021/12/01 04:19:05;;;;;;;8.30;3.53;;;4.00;81.70;;;;;;4993535;28;20030;-68
2021/12/01 04:21:31;;;;;;;6.83;3.30;;;4.00;81.70;;;;;;4993475;28;20494;-68
2021/12/01 04:23:56;;;;;;;8.10;4.00;;;4.00;81.50;;;;;;4993100;28;20054;-68
2021/12/01 04:26:26;;;;;;;7.90;4.40;;;4.00;81.50;;;;;;4993441;28;20375;-68
2021/12/01 04:28:52;;;;;;;14.93;4.20;;;4.00;81.60;;;;;;4992884;28;20410;-68
2021/12/01 04:31:18;;;;;;;8.00;3.90;;;4.00;81.90;;;;;;4994564;28;20030;-68
2021/12/01 04:33:44;;;;;;;8.97;4.20;;;4.00;82.30;;;;;;4997231;28;20368;-68
2021/12/01 04:36:11;;;;;;;7.90;3.17;;;4.00;82.10;;;;;;4996906;28;20034;-68
2021/12/01 04:38:37;;;;;;;15.23;3.63;;;4.10;81.80;;;;;;4996637;28;20037;-68
2021/12/01 04:41:04;;;;;;;6.53;3.37;;;4.10;81.60;;;;;;4996993;28;20029;-68
2021/12/01 04:43:30;;;;;;;8.43;3.70;;;4.10;81.50;;;;;;4997129;28;20030;-68
2021/12/01 04:45:59;;;;;;;10.10;4.10;;;4.10;81.60;;;;;;4997073;28;20023;-68
2021/12/01 04:48:27;;;;;;;7.27;3.83;;;4.10;81.70;;;;;;4996988;28;20037;-68
2021/12/01 04:50:53;;;;;;;8.10;3.73;;;4.10;81.80;;;;;;4996792;28;20034;-68
2021/12/01 04:53:19;;;;;;;7.87;3.80;;;4.10;81.80;;;;;;4996597;28;20034;-68
2021/12/01 04:55:45;;;;;;;7.63;3.77;;;4.10;81.80;;;;;;4996455;28;20035;-69
2021/12/01 04:58:10;;;;;;;10.67;3.57;;;4.10;82.10;;;;;;4996780;28;20391;-68
2021/12/01 05:00:37;;;;;;;8.03;3.97;;;4.10;82.10;;;;;;4996380;28;20485;-68
2021/12/01 05:03:04;;;;;;;19.17;5.00;;;4.10;81.80;;;;;;4996200;28;20050;-68
2021/12/01 05:05:30;;;;;;;10.20;4.30;;;4.10;82.10;;;;;;4995536;28;20427;-68
2021/12/01 05:07:56;;;;;;;11.73;4.10;;;4.10;82.40;;;;;;4996528;28;20106;-68
2021/12/01 05:10:22;;;;;;;10.17;4.87;;;4.20;82.50;;;;;;4996273;28;20113;-68
2021/12/01 05:12:48;;;;;;;8.80;5.10;;;4.20;82.50;;;;;;4996135;28;20117;-68
2021/12/01 05:15:14;;;;;;;7.33;4.10;;;4.20;82.80;;;;;;4996664;28;20025;-68
2021/12/01 05:17:40;;;;;;;8.57;4.27;;;4.20;82.70;;;;;;4996328;28;20113;-68
2021/12/01 05:20:07;;;;;;;6.80;3.77;;;4.20;82.90;;;;;;4996187;28;20113;-68
2021/12/01 05:22:33;;;;;;;9.10;4.30;;;4.10;82.90;;;;;;4996626;28;20438;-68
2021/12/01 05:24:59;;;;;;;12.60;4.47;;;4.20;83.00;;;;;;4996093;28;20054;-68
2021/12/01 05:27:25;;;;;;;11.30;4.13;;;4.20;82.60;;;;;;4996167;28;20056;-68
2021/12/01 05:29:50;;;;;;;9.80;3.90;;;4.20;83.40;;;;;;4996030;28;20069;-68
2021/12/01 05:32:17;;;;;;;13.33;3.90;;;4.20;82.90;;;;;;4995970;28;20479;-68
2021/12/01 05:34:43;;;;;;;7.03;3.97;;;4.20;82.90;;;;;;4995906;28;20038;-68
2021/12/01 05:37:09;;;;;;;10.07;4.13;;;4.20;83.10;;;;;;4995748;28;20495;-68
2021/12/01 05:39:35;;;;;;;11.30;4.20;;;4.20;83.30;;;;;;4995920;28;20114;-68
2021/12/01 05:42:01;;;;;;;7.23;4.27;;;4.20;83.20;;;;;;4995380;28;20022;-69
2021/12/01 05:44:29;;;;;;;8.10;4.30;;;4.30;83.20;;;;;;4995398;28;20081;-68
2021/12/01 05:46:55;;;;;;;8.37;4.27;;;4.20;83.40;;;;;;4995865;28;20077;-69
2021/12/01 05:49:21;;;;;;;9.90;5.60;;;4.30;83.50;;;;;;4995645;28;20035;-68
2021/12/01 05:51:46;;;;;;;10.77;4.77;;;4.30;83.70;;;;;;4995706;28;20042;-68
2021/12/01 05:54:12;;;;;;;8.37;4.77;;;4.40;83.60;;;;;;4995492;28;20039;-68
2021/12/01 05:56:38;;;;;;;15.83;5.00;;;4.30;83.10;;;;;;4995482;28;20031;-68
2021/12/01 05:59:04;;;;;;;6.93;4.23;;;4.40;82.50;;;;;;4995361;28;20033;-68
2021/12/01 06:01:29;;;;;;;14.13;4.73;;;4.40;82.00;;;;;;4994700;28;20073;-68
2021/12/01 06:03:55;;;;;;;12.57;4.53;;;4.40;82.60;;;;;;4977950;28;20394;-67
2021/12/01 06:06:21;;;;;;;10.47;4.13;;;4.50;82.50;;;;;;4995462;28;20128;-68
2021/12/01 06:08:47;;;;;;;9.37;5.00;;;4.50;82.30;;;;;;4995473;28;20105;-68
2021/12/01 06:11:13;;;;;;;12.50;5.60;;;4.50;82.50;;;;;;4994955;28;20137;-68
2021/12/01 06:13:41;;;;;;;13.17;5.20;;;4.50;82.30;;;;;;4995159;28;20041;-68
2021/12/01 06:16:07;;;;;;;10.37;5.10;;;4.50;82.40;;;;;;4995150;28;20030;-68
2021/12/01 06:18:33;;;;;;;8.60;4.60;;;4.60;82.00;;;;;;4995382;28;20489;-68
2021/12/01 06:20:59;;;;;;;7.77;4.77;;;4.50;81.60;;;;;;4995142;28;20030;-68
2021/12/01 06:23:25;;;;;;;12.57;5.63;;;4.60;81.60;;;;;;4995207;28;20054;-68
2021/12/01 06:25:51;;;;;;;10.87;6.10;;;4.60;81.70;;;;;;4977578;28;20029;-68
2021/12/01 06:28:17;;;;;;;16.63;5.30;;;4.60;81.10;;;;;;4995339;28;20030;-68
2021/12/01 06:30:42;;;;;;;10.83;5.17;;;4.60;80.50;;;;;;4994681;28;20022;-68
2021/12/01 06:33:09;;;;;;;10.63;5.73;;;4.60;80.50;;;;;;4994828;28;20372;-68
2021/12/01 06:35:35;;;;;;;12.80;5.87;;;4.60;81.00;;;;;;4994574;28;20049;-68
2021/12/01 06:38:02;;;;;;;13.23;7.13;;;4.60;80.70;;;;;;4994822;28;20023;-68
2021/12/01 06:40:28;;;;;;;14.30;6.23;;;4.60;81.10;;;;;;4994773;28;20023;-68
2021/12/01 06:42:54;;;;;;;12.33;5.57;;;4.60;81.80;;;;;;4994882;28;20077;-69
2021/12/01 06:45:21;;;;;;;11.77;6.03;;;4.60;82.10;;;;;;4994689;28;20100;-71
2021/12/01 06:47:47;;;;;;;11.43;4.97;;;4.60;82.30;;;;;;4992974;28;20037;-70
2021/12/01 06:50:13;;;;;;;11.63;5.13;;;4.60;82.20;;;;;;4993021;28;20023;-70
2021/12/01 06:52:39;;;;;;;11.83;5.20;;;4.60;82.20;;;;;;4994526;28;20082;-70
2021/12/01 06:55:08;;;;;;;11.33;5.03;;;4.60;82.00;;;;;;4976779;28;20030;-70
2021/12/01 06:57:34;;;;;;;10.27;5.30;;;4.60;81.60;;;;;;4994399;28;20368;-69
2021/12/01 07:00:01;;;;;;;10.20;6.10;;;4.60;81.10;;;;;;4993774;28;20035;-69
2021/12/01 07:02:27;;;;;;;9.23;5.07;;;4.60;81.20;;;;;;4994148;28;20022;-70
2021/12/01 07:04:53;;;;;;;12.77;5.50;;;4.60;80.90;;;;;;4994043;28;20497;-68
2021/12/01 07:07:18;;;;;;;12.57;4.90;;;4.60;81.10;;;;;;4994096;28;20384;-72
2021/12/01 07:09:49;;;;;;;11.43;4.97;;;4.70;80.70;;;;;;4994102;28;20372;-73
2021/12/01 07:12:15;;;;;;;11.17;4.97;;;4.70;80.40;;;;;;4994001;28;20030;-71
2021/12/01 07:14:40;;;;;;;24.27;5.00;;;4.70;79.90;;;;;;4993541;28;20022;-72
2021/12/01 07:17:07;;;;;;;14.43;5.30;;;4.70;80.00;;;;;;4992769;28;20647;-75
2021/12/01 07:19:33;;;;;;;8.23;4.27;;;4.70;79.50;;;;;;4994079;28;20031;-75
2021/12/01 07:21:59;;;;;;;10.13;4.77;;;4.70;79.90;;;;;;4994114;28;20475;-71
2021/12/01 07:24:25;;;;;;;8.13;4.57;;;4.80;79.60;;;;;;4976435;28;20041;-79
2021/12/01 07:26:51;;;;;;;12.10;5.03;;;4.80;79.50;;;;;;4993414;28;20105;-75
2021/12/01 07:29:18;;;;;;;10.60;5.00;;;4.90;79.30;;;;;;4993294;28;20054;-75
2021/12/01 07:31:43;;;;;;;8.60;4.10;;;4.90;79.40;;;;;;4993070;28;20038;-75
2021/12/01 07:34:09;;;;;;;12.13;4.70;;;4.90;79.30;;;;;;4993469;28;20018;-76
2021/12/01 07:36:35;;;;;;;8.90;4.80;;;4.90;79.60;;;;;;4993515;28;20506;-73
2021/12/01 07:39:02;;;;;;;11.57;4.93;;;4.90;79.80;;;;;;4994219;28;20475;-75
2021/12/01 07:41:27;;;;;;;7.10;4.30;;;4.90;80.00;;;;;;4993980;28;20022;-74
2021/12/01 07:43:53;;;;;;;10.97;5.00;;;4.90;79.70;;;;;;4993858;28;20033;-74
2021/12/01 07:46:19;;;;;;;8.73;4.90;;;4.90;79.60;;;;;;4994012;28;20026;-72
2021/12/01 07:48:45;;;;;;;12.93;6.13;;;4.90;79.60;;;;;;4993704;28;20057;-73
2021/12/01 07:51:12;;;;;;;8.87;5.00;;;4.90;79.60;;;;;;4993695;28;20489;-74
2021/12/01 07:53:38;;;;;;;10.23;4.73;;;4.90;79.40;;;;;;4993757;28;20026;-74
2021/12/01 07:56:05;;;;;;;7.40;4.37;;;5.00;79.60;;;;;;4993800;28;20030;-75
2021/12/01 07:58:31;;;;;;;12.33;4.97;;;5.00;79.80;;;;;;4993592;28;20470;-76
2021/12/01 08:00:56;;;;;;;12.07;4.57;;;5.00;79.80;;;;;;4993394;28;20052;-74
2021/12/01 08:03:22;;;;;;;14.27;4.77;;;5.00;80.00;;;;;;4993463;28;20098;-75
2021/12/01 08:05:48;;;;;;;11.20;5.20;;;5.00;79.70;;;;;;4994225;28;20031;-74
2021/12/01 08:08:13;;;;;;;8.47;5.30;;;5.00;79.50;;;;;;4997695;28;20041;-73
2021/12/01 08:10:40;;;;;;;10.57;5.03;;;5.00;79.30;;;;;;4997680;28;20034;-75
2021/12/01 08:13:05;;;;;;;13.37;5.20;;;5.10;79.70;;;;;;4997607;28;20039;-76
2021/12/01 08:15:31;;;;;;;8.53;5.00;;;5.10;79.50;;;;;;4997443;28;20023;-75
2021/12/01 08:17:59;;;;;;;9.97;5.40;;;5.10;79.60;;;;;;4997588;28;20030;-76
2021/12/01 08:20:25;;;;;;;13.27;5.57;;;5.10;79.80;;;;;;4997420;28;20464;-76
2021/12/01 08:22:51;;;;;;;11.80;5.03;;;5.10;79.60;;;;;;4996983;28;20030;-75
2021/12/01 08:25:17;;;;;;;17.10;5.10;;;5.20;79.60;;;;;;4980185;28;20038;-76
2021/12/01 08:27:43;;;;;;;12.13;5.83;;;5.20;79.60;;;;;;4997448;28;20490;-75
2021/12/01 08:30:09;;;;;;;14.83;5.63;;;5.20;79.60;;;;;;4997172;28;20137;-70
2021/12/01 08:32:35;;;;;;;11.23;4.77;;;5.20;79.50;;;;;;4996897;28;20486;-69
2021/12/01 08:35:02;;;;;;;11.67;5.87;;;5.30;79.60;;;;;;4996535;28;20105;-69
2021/12/01 08:37:28;;;;;;;10.97;5.50;;;5.30;79.50;;;;;;4995123;28;20034;-76
2021/12/01 08:39:54;;;;;;;12.93;5.80;;;5.30;79.50;;;;;;4996290;28;20507;-74
2021/12/01 08:42:22;;;;;;;11.87;5.60;;;5.30;79.70;;;;;;5015765;28;20117;-75
2021/12/01 08:44:49;;;;;;;10.17;5.70;;;5.40;79.70;;;;;;5016138;28;20099;-76
2021/12/01 08:47:17;;;;;;;34.37;6.27;;;5.40;80.20;;;;;;5016369;28;20100;-69
2021/12/01 08:49:43;;;;;;;12.30;5.33;;;5.40;79.90;;;;;;5015976;28;20076;-69
2021/12/01 08:52:09;;;;;;;12.97;5.27;;;5.40;79.90;;;;;;5009596;28;20511;-74
2021/12/01 08:54:36;;;;;;;15.00;5.00;;;5.40;79.60;;;;;;5015889;28;20050;-75
2021/12/01 08:57:02;;;;;;;10.13;5.00;;;5.40;79.60;;;;;;5015781;28;20033;-74
2021/12/01 08:59:28;;;;;;;12.37;5.30;;;5.50;79.30;;;;;;5015460;28;20080;-75
2021/12/01 09:01:53;;;;;;;13.07;4.90;;;5.50;79.30;;;;;;5015870;28;20053;-70
2021/12/01 09:04:20;;;;;;;12.40;5.00;;;5.50;79.30;;;;;;5016136;28;20022;-70
2021/12/01 09:06:46;;;;;;;8.93;4.83;;;5.50;79.20;;;;;;5015744;28;20387;-76
2021/12/01 09:09:18;;;;;;;10.77;4.93;;;5.50;79.50;;;;;;4997777;28;20072;-70
2021/12/01 09:11:49;;;;;;;10.13;5.00;;;5.60;79.60;;;;;;5015364;28;20029;-71
2021/12/01 09:14:15;;;;;;;9.40;5.17;;;5.60;79.60;;;;;;5015832;28;20040;-71
2021/12/01 09:16:42;;;;;;;12.77;5.33;;;5.60;79.70;;;;;;5015218;28;20130;-74
2021/12/01 09:19:08;;;;;;;13.17;5.10;;;5.70;79.50;;;;;;5014624;28;20029;-74
2021/12/01 09:21:34;;;;;;;11.80;4.80;;;5.60;79.40;;;;;;5015556;28;20030;-76
2021/12/01 09:24:01;;;;;;;12.80;5.37;;;5.70;80.00;;;;;;5014841;28;20083;-77
2021/12/01 09:26:27;;;;;;;12.87;5.10;;;5.70;79.10;;;;;;5015437;28;20030;-76
2021/12/01 09:28:52;;;;;;;11.27;5.00;;;5.70;79.40;;;;;;5015566;28;20022;-76
2021/12/01 09:31:18;;;;;;;11.83;4.80;;;5.70;79.00;;;;;;4997843;28;20026;-76
2021/12/01 09:33:44;;;;;;;11.60;5.50;;;5.80;79.10;;;;;;5015569;28;20406;-76
2021/12/01 09:36:11;;;;;;;16.00;5.93;;;5.80;79.20;;;;;;5014091;28;20026;-76
2021/12/01 09:38:36;;;;;;;14.77;6.13;;;5.80;79.30;;;;;;5014921;28;20037;-74
2021/12/01 09:41:02;;;;;;;12.47;5.70;;;5.80;79.30;;;;;;5014964;28;20076;-74
2021/12/01 09:43:31;;;;;;;10.00;5.67;;;5.80;79.10;;;;;;5015575;28;20025;-74
2021/12/01 09:45:59;;;;;;;12.20;5.40;;;5.80;79.30;;;;;;5014827;28;20052;-77
2021/12/01 09:48:27;;;;;;;8.93;5.13;;;5.90;79.10;;;;;;5013468;28;20057;-76
2021/12/01 09:50:53;;;;;;;11.87;5.63;;;5.90;79.00;;;;;;5014393;28;20028;-76
2021/12/01 09:53:19;;;;;;;12.57;5.67;;;6.00;78.80;;;;;;5015120;28;20537;-76
2021/12/01 09:55:45;;;;;;;8.93;4.80;;;6.10;78.50;;;;;;4997259;28;20018;-75
2021/12/01 09:58:17;;;;;;;12.67;5.63;;;6.20;78.40;;;;;;5014721;28;20536;-76
2021/12/01 10:00:54;;;;;;;7.63;5.18;;;6.20;78.40;;;;;;5014756;28;20524;-75
2021/12/01 10:03:21;;;;;;;13.00;5.47;;;6.20;78.40;;;;;;5014818;28;20054;-74
2021/12/01 10:05:51;;;;;;;13.30;5.90;;;6.30;78.50;;;;;;5014893;28;20387;-76
2021/12/01 10:08:25;;;;;;;12.60;5.73;;;6.40;78.20;;;;;;5014571;28;20026;-76
2021/12/01 10:10:52;;;;;;;14.23;5.47;;;6.40;78.90;;;;;;5014615;28;20459;-76
2021/12/01 10:13:26;;;;;;;15.27;5.80;;;6.50;78.00;;;;;;5014253;28;20072;-76
2021/12/01 10:15:54;;;;;;;9.70;5.37;;;6.50;77.90;;;;;;5013074;28;20114;-75
2021/12/01 10:18:20;;;;;;;13.10;7.10;;;6.50;77.90;;;;;;5014075;28;20064;-73
2021/12/01 10:21:12;;;;;;;20.57;7.93;;;6.60;77.80;;;;;;5014597;28;20137;-75
2021/12/01 10:23:47;;;;;;;18.27;7.10;;;6.60;77.60;;;;;;5014781;28;20105;-74
2021/12/01 10:26:23;;;;;;;14.97;6.23;;;6.60;77.30;;;;;;5014579;28;20018;-76
2021/12/01 10:28:57;;;;;;;12.43;6.23;;;6.70;77.60;;;;;;5013927;28;20475;-73
2021/12/01 10:31:54;;;;;;;12.97;4.97;;;6.80;77.40;;;;;;5014349;28;20033;-75
2021/12/01 10:34:32;;;;;;;12.60;5.40;;;6.90;77.10;;;;;;5002349;28;20549;-74
2021/12/01 10:37:26;;;;;;;10.37;5.33;;;6.90;76.70;;;;;;5014531;28;20030;-76
2021/12/01 10:40:17;;;;;;;9.53;4.53;;;7.00;76.70;;;;;;5014120;28;20025;-76
2021/12/01 10:42:52;;;;;;;15.57;5.17;;;7.10;76.80;;;;;;5013767;28;20054;-75
2021/12/01 10:45:20;;;;;;;12.10;5.27;;;7.10;77.20;;;;;;5012274;28;20022;-76
2021/12/01 10:47:45;;;;;;;10.63;5.20;;;7.20;76.90;;;;;;5013998;28;20471;-76
2021/12/01 10:50:18;;;;;;;8.50;4.80;;;7.30;76.70;;;;;;4996012;28;20041;-76
2021/12/01 10:53:05;;;;;;;8.43;4.95;;;7.40;76.30;;;;;;5013619;28;20506;-75
2021/12/01 10:55:32;;;;;;;8.27;4.57;;;7.60;76.60;;;;;;5011696;28;20053;-76
2021/12/01 10:58:05;;;;;;;8.27;4.57;;;7.70;76.00;;;;;;5012067;28;20033;-75
2021/12/01 11:00:38;;;;;;;10.90;4.30;;;8.00;75.50;;;;;;5013355;28;20446;-73
2021/12/01 11:03:12;;;;;;;9.63;4.33;;;8.10;74.80;;;;;;5013482;28;20022;-74
2021/12/01 11:05:49;;;;;;;8.60;3.80;;;8.20;74.20;;;;;;5013743;28;20402;-75
2021/12/01 11:08:29;;;;;;;5.53;3.80;;;8.30;73.50;;;;;;5013736;28;20022;-75
2021/12/01 11:10:58;;;;;;;10.53;4.13;;;8.40;73.30;;;;;;5013875;28;20088;-75
2021/12/01 11:13:24;;;;;;;6.80;3.77;;;8.40;72.90;;;;;;5014185;28;20374;-75
2021/12/01 11:15:55;;;;;;;7.17;3.97;;;8.50;72.90;;;;;;5013595;28;20049;-76
2021/12/01 11:18:24;;;;;;;6.37;3.77;;;8.50;73.20;;;;;;5013328;28;20026;-75
2021/12/01 11:20:54;;;;;;;7.97;3.80;;;8.60;73.50;;;;;;5012881;28;20022;-75
2021/12/01 11:23:35;;;;;;;7.57;3.87;;;8.60;73.20;;;;;;5011615;28;20030;-75
2021/12/01 11:26:05;;;;;;;7.37;4.20;;;8.60;73.20;;;;;;5011414;28;20022;-75
2021/12/01 11:28:33;;;;;;;8.07;3.53;;;8.70;73.30;;;;;;5011688;28;20053;-76
2021/12/01 11:31:05;;;;;;;8.27;3.70;;;8.70;73.40;;;;;;5011305;28;20502;-74
2021/12/01 11:33:31;;;;;;;15.15;3.83;;;8.70;73.90;;;;;;4993966;28;20029;-74
2021/12/01 11:36:00;;;;;;;11.93;4.13;;;8.70;73.60;;;;;;5012247;28;20021;-76
2021/12/01 11:38:26;;;;;;;9.47;3.80;;;8.70;73.40;;;;;;5013668;28;20038;-75
2021/12/01 11:40:54;;;;;;;12.30;4.47;;;8.70;73.60;;;;;;5012669;28;20030;-75
2021/12/01 11:43:22;;;;;;;11.73;4.80;;;8.70;74.00;;;;;;5013665;28;20430;-75
2021/12/01 11:45:48;;;;;;;14.03;5.20;;;8.70;74.20;;;;;;5013363;28;20026;-75
2021/12/01 11:48:21;;;;;;;13.97;6.63;;;8.70;74.10;;;;;;5013572;28;20185;-75
2021/12/01 11:51:14;;;;;;;10.77;5.10;;;8.70;74.50;;;;;;5013351;28;20026;-75
2021/12/01 11:53:43;;;;;;;14.30;5.40;;;8.70;74.60;;;;;;5013330;28;20038;-76
2021/12/01 11:56:16;;;;;;;10.47;4.57;;;8.70;74.30;;;;;;5013582;28;20025;-74
2021/12/01 11:58:44;;;;;;;13.27;4.90;;;8.70;74.30;;;;;;5013233;28;20072;-74
2021/12/01 12:01:21;;;;;;;12.93;5.27;;;8.60;74.20;;;;;;5012673;28;20562;-75
2021/12/01 12:04:09;;;;;;;9.73;4.97;;;8.60;74.50;;;;;;4995334;28;20030;-74
2021/12/01 12:06:43;;;;;;;13.00;4.97;;;8.60;74.80;;;;;;5012859;28;20014;-75
2021/12/01 12:09:10;;;;;;;11.23;4.80;;;8.60;74.80;;;;;;5013197;28;20026;-75
2021/12/01 12:11:46;;;;;;;12.40;5.17;;;8.60;75.10;;;;;;5013284;28;20468;-76
2021/12/01 12:14:20;;;;;;;13.80;5.40;;;8.60;75.20;;;;;;5007819;28;20422;-76
2021/12/01 12:17:07;;;;;;;19.13;5.43;;;8.50;75.20;;;;;;4990037;28;20026;-76
2021/12/01 12:19:55;;;;;;;15.57;5.67;;;8.60;75.10;;;;;;4993072;28;20023;-75
2021/12/01 12:22:37;;;;;;;11.43;5.80;;;8.50;75.30;;;;;;4993354;28;20037;-75
2021/12/01 12:25:07;;;;;;;13.87;6.20;;;8.50;75.60;;;;;;4993480;28;20026;-75
2021/12/01 12:27:39;;;;;;;17.37;7.03;;;8.50;75.70;;;;;;4993397;28;20106;-75
2021/12/01 12:30:10;;;;;;;33.60;14.07;;;8.50;75.70;;;;;;4993153;28;20015;-76
2021/12/01 12:32:37;;;;;;;68.47;41.80;;;8.50;75.70;;;;;;4993194;28;20129;-75
2021/12/01 12:35:08;;;;;;;24.63;13.00;;;8.50;75.90;;;;;;4993107;28;20049;-75
2021/12/01 12:37:35;;;;;;;15.37;8.33;;;8.40;75.90;;;;;;4993285;28;20037;-75
2021/12/01 12:40:11;;;;;;;18.93;7.87;;;8.40;75.90;;;;;;4993187;28;20455;-75
2021/12/01 12:43:04;;;;;;;16.63;7.13;;;8.40;76.10;;;;;;4991542;28;20486;-75
2021/12/01 12:45:30;;;;;;;24.75;7.38;;;8.40;76.10;;;;;;4992835;28;20029;-76
2021/12/01 12:47:55;;;;;;;13.40;7.00;;;8.40;76.00;;;;;;4993116;28;20034;-74
2021/12/01 12:50:24;;;;;;;18.00;8.13;;;8.40;76.40;;;;;;4993249;28;20026;-75
2021/12/01 12:53:06;;;;;;;12.17;7.30;;;8.40;76.50;;;;;;4995524;28;20030;-75
2021/12/01 12:55:41;;;;;;;13.60;7.35;;;8.40;76.60;;;;;;4996872;28;20717;-75
2021/12/01 12:58:09;;;;;;;17.83;6.67;;;8.40;76.70;;;;;;4996469;28;20030;-75
2021/12/01 13:00:44;;;;;;;15.50;7.83;;;8.40;76.80;;;;;;4996293;28;20042;-77
2021/12/01 13:03:22;;;;;;;14.33;7.17;;;8.40;76.90;;;;;;4993928;28;20058;-79